sensor_id;sensor_type;location;lat;lon;timestamp;temperature;humidity
43808;DHT22;29438;50.664;10.098;2022-12-29T00:02:16;8.20;86.10
43808;DHT22;29438;50.664;10.098;2022-12-29T00:04:42;8.10;86.40
43808;DHT22;29438;50.664;10.098;2022-12-29T00:07:08;8.10;86.80
43808;DHT22;29438;50.664;10.098;2022-12-29T00:09:34;8.20;86.30
43808;DHT22;29438;50.664;10.098;2022-12-29T00:12:00;8.20;86.20
43808;DHT22;29438;50.664;10.098;2022-12-29T00:14:26;8.20;86.00
43808;DHT22;29438;50.664;10.098;2022-12-29T00:17:11;8.20;86.10
43808;DHT22;29438;50.664;10.098;2022-12-29T00:19:36;8.20;86.30
43808;DHT22;29438;50.664;10.098;2022-12-29T00:22:21;8.20;86.20
43808;DHT22;29438;50.664;10.098;2022-12-29T00:25:05;8.30;86.40
43808;DHT22;29438;50.664;10.098;2022-12-29T00:27:49;8.20;86.80
43808;DHT22;29438;50.664;10.098;2022-12-29T00:30:33;8.20;86.90
43808;DHT22;29438;50.664;10.098;2022-12-29T00:33:21;8.20;86.80
43808;DHT22;29438;50.664;10.098;2022-12-29T00:36:32;8.10;87.20
43808;DHT22;29438;50.664;10.098;2022-12-29T00:39:10;8.20;87.30
43808;DHT22;29438;50.664;10.098;2022-12-29T00:41:54;8.20;87.00
43808;DHT22;29438;50.664;10.098;2022-12-29T00:44:38;8.30;86.90
43808;DHT22;29438;50.664;10.098;2022-12-29T00:47:04;8.30;86.90
43808;DHT22;29438;50.664;10.098;2022-12-29T00:49:30;8.30;86.90
43808;DHT22;29438;50.664;10.098;2022-12-29T00:52:04;8.30;87.00
43808;DHT22;29438;50.664;10.098;2022-12-29T00:54:30;8.30;86.80
43808;DHT22;29438;50.664;10.098;2022-12-29T00:56:56;8.30;86.80
43808;DHT22;29438;50.664;10.098;2022-12-29T00:59:22;8.30;86.60
43808;DHT22;29438;50.664;10.098;2022-12-29T01:01:50;8.40;86.50
43808;DHT22;29438;50.664;10.098;2022-12-29T01:04:16;8.40;86.50
43808;DHT22;29438;50.664;10.098;2022-12-29T01:06:42;8.50;86.50
43808;DHT22;29438;50.664;10.098;2022-12-29T01:09:09;8.50;86.40
43808;DHT22;29438;50.664;10.098;2022-12-29T01:12:05;8.50;86.20
43808;DHT22;29438;50.664;10.098;2022-12-29T01:14:31;8.60;86.20
43808;DHT22;29438;50.664;10.098;2022-12-29T01:16:57;8.60;86.40
43808;DHT22;29438;50.664;10.098;2022-12-29T01:19:23;8.60;86.40
43808;DHT22;29438;50.664;10.098;2022-12-29T01:21:49;8.60;86.50
43808;DHT22;29438;50.664;10.098;2022-12-29T01:24:16;8.60;86.70
43808;DHT22;29438;50.664;10.098;2022-12-29T01:26:42;8.50;87.40
43808;DHT22;29438;50.664;10.098;2022-12-29T01:29:08;8.50;87.40
43808;DHT22;29438;50.664;10.098;2022-12-29T01:31:33;8.50;88.00
43808;DHT22;29438;50.664;10.098;2022-12-29T01:33:59;8.30;88.30
43808;DHT22;29438;50.664;10.098;2022-12-29T01:36:25;8.30;88.60
43808;DHT22;29438;50.664;10.098;2022-12-29T01:38:50;8.30;89.00
43808;DHT22;29438;50.664;10.098;2022-12-29T01:41:16;8.30;89.40
43808;DHT22;29438;50.664;10.098;2022-12-29T01:43:56;8.30;89.60
43808;DHT22;29438;50.664;10.098;2022-12-29T01:46:37;8.20;89.90
43808;DHT22;29438;50.664;10.098;2022-12-29T01:49:25;8.20;89.90
43808;DHT22;29438;50.664;10.098;2022-12-29T01:51:58;8.20;90.00
43808;DHT22;29438;50.664;10.098;2022-12-29T01:54:29;8.10;90.00
43808;DHT22;29438;50.664;10.098;2022-12-29T01:57:01;8.10;90.10
43808;DHT22;29438;50.664;10.098;2022-12-29T01:59:30;8.10;90.10
43808;DHT22;29438;50.664;10.098;2022-12-29T02:01:58;8.10;90.10
43808;DHT22;29438;50.664;10.098;2022-12-29T02:04:25;8.10;90.30
43808;DHT22;29438;50.664;10.098;2022-12-29T02:06:55;8.00;90.40
43808;DHT22;29438;50.664;10.098;2022-12-29T02:09:22;8.10;90.30
43808;DHT22;29438;50.664;10.098;2022-12-29T02:11:48;8.10;90.30
43808;DHT22;29438;50.664;10.098;2022-12-29T02:14:14;8.10;90.20
43808;DHT22;29438;50.664;10.098;2022-12-29T02:16:52;8.10;90.10
43808;DHT22;29438;50.664;10.098;2022-12-29T02:22:00;8.20;89.90
43808;DHT22;29438;50.664;10.098;2022-12-29T02:28:04;8.20;90.00
43808;DHT22;29438;50.664;10.098;2022-12-29T02:33:39;8.20;90.00
43808;DHT22;29438;50.664;10.098;2022-12-29T02:36:14;8.30;89.90
43808;DHT22;29438;50.664;10.098;2022-12-29T02:38:59;8.30;89.90
43808;DHT22;29438;50.664;10.098;2022-12-29T02:47:18;8.30;90.10
43808;DHT22;29438;50.664;10.098;2022-12-29T02:49:52;8.40;90.30
43808;DHT22;29438;50.664;10.098;2022-12-29T02:52:26;8.50;90.20
43808;DHT22;29438;50.664;10.098;2022-12-29T02:54:54;8.40;90.30
43808;DHT22;29438;50.664;10.098;2022-12-29T02:59:53;8.50;90.50
43808;DHT22;29438;50.664;10.098;2022-12-29T03:10:59;8.60;90.20
43808;DHT22;29438;50.664;10.098;2022-12-29T03:13:32;8.50;90.50
43808;DHT22;29438;50.664;10.098;2022-12-29T03:19:23;8.50;90.80
43808;DHT22;29438;50.664;10.098;2022-12-29T03:21:55;8.50;90.70
43808;DHT22;29438;50.664;10.098;2022-12-29T03:24:47;8.50;90.60
43808;DHT22;29438;50.664;10.098;2022-12-29T03:27:18;8.50;90.50
43808;DHT22;29438;50.664;10.098;2022-12-29T03:29:54;8.60;90.30
43808;DHT22;29438;50.664;10.098;2022-12-29T03:32:22;8.50;90.20
43808;DHT22;29438;50.664;10.098;2022-12-29T03:34:49;8.50;90.10
43808;DHT22;29438;50.664;10.098;2022-12-29T03:37:18;8.60;90.10
43808;DHT22;29438;50.664;10.098;2022-12-29T03:39:46;8.60;89.80
43808;DHT22;29438;50.664;10.098;2022-12-29T03:42:16;8.70;89.50
43808;DHT22;29438;50.664;10.098;2022-12-29T03:44:44;8.70;89.40
43808;DHT22;29438;50.664;10.098;2022-12-29T03:47:11;8.70;89.20
43808;DHT22;29438;50.664;10.098;2022-12-29T03:49:37;8.80;88.90
43808;DHT22;29438;50.664;10.098;2022-12-29T03:52:03;8.70;88.90
43808;DHT22;29438;50.664;10.098;2022-12-29T03:54:29;8.80;88.90
43808;DHT22;29438;50.664;10.098;2022-12-29T03:56:55;8.80;88.90
43808;DHT22;29438;50.664;10.098;2022-12-29T03:59:21;8.80;89.00
43808;DHT22;29438;50.664;10.098;2022-12-29T04:01:46;8.80;88.90
43808;DHT22;29438;50.664;10.098;2022-12-29T04:04:12;8.80;88.80
43808;DHT22;29438;50.664;10.098;2022-12-29T04:06:38;8.80;88.60
43808;DHT22;29438;50.664;10.098;2022-12-29T04:09:03;8.80;88.50
43808;DHT22;29438;50.664;10.098;2022-12-29T04:11:29;8.80;88.50
43808;DHT22;29438;50.664;10.098;2022-12-29T04:13:54;8.90;88.00
43808;DHT22;29438;50.664;10.098;2022-12-29T04:16:20;8.90;87.80
43808;DHT22;29438;50.664;10.098;2022-12-29T04:18:45;9.00;87.80
43808;DHT22;29438;50.664;10.098;2022-12-29T04:21:11;8.90;87.90
43808;DHT22;29438;50.664;10.098;2022-12-29T04:23:38;9.00;87.70
43808;DHT22;29438;50.664;10.098;2022-12-29T04:26:04;9.00;87.40
43808;DHT22;29438;50.664;10.098;2022-12-29T04:28:32;9.10;87.30
43808;DHT22;29438;50.664;10.098;2022-12-29T04:30:58;9.10;87.30
43808;DHT22;29438;50.664;10.098;2022-12-29T04:33:23;9.10;87.20
43808;DHT22;29438;50.664;10.098;2022-12-29T04:35:49;9.10;87.20
43808;DHT22;29438;50.664;10.098;2022-12-29T04:38:15;9.20;87.00
43808;DHT22;29438;50.664;10.098;2022-12-29T04:40:43;9.20;86.90
43808;DHT22;29438;50.664;10.098;2022-12-29T04:43:09;9.20;87.10
43808;DHT22;29438;50.664;10.098;2022-12-29T04:45:35;9.20;87.20
43808;DHT22;29438;50.664;10.098;2022-12-29T04:48:00;9.20;87.30
43808;DHT22;29438;50.664;10.098;2022-12-29T04:50:26;9.10;87.30
43808;DHT22;29438;50.664;10.098;2022-12-29T04:52:51;9.20;87.20
43808;DHT22;29438;50.664;10.098;2022-12-29T04:55:17;9.20;87.30
43808;DHT22;29438;50.664;10.098;2022-12-29T04:57:43;9.10;87.30
43808;DHT22;29438;50.664;10.098;2022-12-29T05:00:08;9.20;87.00
43808;DHT22;29438;50.664;10.098;2022-12-29T05:02:35;9.10;87.20
43808;DHT22;29438;50.664;10.098;2022-12-29T05:05:01;9.20;86.80
43808;DHT22;29438;50.664;10.098;2022-12-29T05:07:26;9.20;86.40
43808;DHT22;29438;50.664;10.098;2022-12-29T05:09:52;9.20;86.50
43808;DHT22;29438;50.664;10.098;2022-12-29T05:12:17;9.20;86.40
43808;DHT22;29438;50.664;10.098;2022-12-29T05:14:43;9.30;86.50
43808;DHT22;29438;50.664;10.098;2022-12-29T05:17:08;9.20;86.40
43808;DHT22;29438;50.664;10.098;2022-12-29T05:19:34;9.20;86.40
43808;DHT22;29438;50.664;10.098;2022-12-29T05:21:59;9.30;85.90
43808;DHT22;29438;50.664;10.098;2022-12-29T05:24:25;9.30;86.00
43808;DHT22;29438;50.664;10.098;2022-12-29T05:26:50;9.20;86.00
43808;DHT22;29438;50.664;10.098;2022-12-29T05:29:16;9.20;85.30
43808;DHT22;29438;50.664;10.098;2022-12-29T05:31:41;9.20;85.70
43808;DHT22;29438;50.664;10.098;2022-12-29T05:34:08;9.20;85.60
43808;DHT22;29438;50.664;10.098;2022-12-29T05:36:34;9.20;85.50
43808;DHT22;29438;50.664;10.098;2022-12-29T05:38:59;9.20;85.30
43808;DHT22;29438;50.664;10.098;2022-12-29T05:41:25;9.20;85.60
43808;DHT22;29438;50.664;10.098;2022-12-29T05:43:51;9.20;86.00
43808;DHT22;29438;50.664;10.098;2022-12-29T05:46:16;9.10;86.30
43808;DHT22;29438;50.664;10.098;2022-12-29T05:48:42;9.10;86.10
43808;DHT22;29438;50.664;10.098;2022-12-29T05:51:07;9.10;86.30
43808;DHT22;29438;50.664;10.098;2022-12-29T05:53:32;9.00;86.50
43808;DHT22;29438;50.664;10.098;2022-12-29T05:55:58;9.00;86.60
43808;DHT22;29438;50.664;10.098;2022-12-29T05:58:23;9.00;86.50
43808;DHT22;29438;50.664;10.098;2022-12-29T06:00:49;9.00;86.50
43808;DHT22;29438;50.664;10.098;2022-12-29T06:03:14;9.10;86.30
43808;DHT22;29438;50.664;10.098;2022-12-29T06:05:40;9.10;86.40
43808;DHT22;29438;50.664;10.098;2022-12-29T06:08:05;9.10;86.30
43808;DHT22;29438;50.664;10.098;2022-12-29T06:10:31;9.20;85.90
43808;DHT22;29438;50.664;10.098;2022-12-29T06:12:56;9.20;86.00
43808;DHT22;29438;50.664;10.098;2022-12-29T06:15:22;9.20;85.80
43808;DHT22;29438;50.664;10.098;2022-12-29T06:17:47;9.20;86.00
43808;DHT22;29438;50.664;10.098;2022-12-29T06:20:13;9.20;85.70
43808;DHT22;29438;50.664;10.098;2022-12-29T06:22:39;9.20;85.50
43808;DHT22;29438;50.664;10.098;2022-12-29T06:25:05;9.30;85.30
43808;DHT22;29438;50.664;10.098;2022-12-29T06:27:31;9.30;85.10
43808;DHT22;29438;50.664;10.098;2022-12-29T06:29:56;9.30;85.20
43808;DHT22;29438;50.664;10.098;2022-12-29T06:32:22;9.30;84.80
43808;DHT22;29438;50.664;10.098;2022-12-29T06:34:47;9.30;84.90
43808;DHT22;29438;50.664;10.098;2022-12-29T06:37:13;9.40;84.60
43808;DHT22;29438;50.664;10.098;2022-12-29T06:39:40;9.40;84.70
43808;DHT22;29438;50.664;10.098;2022-12-29T06:42:05;9.30;84.90
43808;DHT22;29438;50.664;10.098;2022-12-29T06:44:31;9.40;84.70
43808;DHT22;29438;50.664;10.098;2022-12-29T06:46:56;9.40;84.90
43808;DHT22;29438;50.664;10.098;2022-12-29T06:49:22;9.40;84.60
43808;DHT22;29438;50.664;10.098;2022-12-29T06:51:48;9.50;84.80
43808;DHT22;29438;50.664;10.098;2022-12-29T06:54:13;9.50;84.50
43808;DHT22;29438;50.664;10.098;2022-12-29T06:56:39;9.50;84.60
43808;DHT22;29438;50.664;10.098;2022-12-29T06:59:04;9.50;84.50
43808;DHT22;29438;50.664;10.098;2022-12-29T07:01:30;9.50;84.40
43808;DHT22;29438;50.664;10.098;2022-12-29T07:03:56;9.50;84.60
43808;DHT22;29438;50.664;10.098;2022-12-29T07:06:21;9.50;84.40
43808;DHT22;29438;50.664;10.098;2022-12-29T07:08:47;9.50;84.50
43808;DHT22;29438;50.664;10.098;2022-12-29T07:11:12;9.60;84.60
43808;DHT22;29438;50.664;10.098;2022-12-29T07:13:38;9.70;84.10
43808;DHT22;29438;50.664;10.098;2022-12-29T07:16:07;9.70;84.10
43808;DHT22;29438;50.664;10.098;2022-12-29T07:18:33;9.70;84.10
43808;DHT22;29438;50.664;10.098;2022-12-29T07:20:59;9.60;84.20
43808;DHT22;29438;50.664;10.098;2022-12-29T07:23:24;9.60;84.30
43808;DHT22;29438;50.664;10.098;2022-12-29T07:25:50;9.60;84.40
43808;DHT22;29438;50.664;10.098;2022-12-29T07:28:15;9.50;84.60
43808;DHT22;29438;50.664;10.098;2022-12-29T07:30:41;9.50;84.70
43808;DHT22;29438;50.664;10.098;2022-12-29T07:33:06;9.50;84.60
43808;DHT22;29438;50.664;10.098;2022-12-29T07:35:34;9.50;84.30
43808;DHT22;29438;50.664;10.098;2022-12-29T07:37:59;9.50;84.50
43808;DHT22;29438;50.664;10.098;2022-12-29T07:40:25;9.50;84.60
43808;DHT22;29438;50.664;10.098;2022-12-29T07:42:50;9.50;84.70
43808;DHT22;29438;50.664;10.098;2022-12-29T07:45:16;9.60;84.50
43808;DHT22;29438;50.664;10.098;2022-12-29T07:47:41;9.50;84.70
43808;DHT22;29438;50.664;10.098;2022-12-29T07:50:07;9.50;84.20
43808;DHT22;29438;50.664;10.098;2022-12-29T07:52:32;9.50;84.40
43808;DHT22;29438;50.664;10.098;2022-12-29T07:54:58;9.60;84.40
43808;DHT22;29438;50.664;10.098;2022-12-29T07:57:23;9.50;84.70
43808;DHT22;29438;50.664;10.098;2022-12-29T07:59:49;9.50;84.90
43808;DHT22;29438;50.664;10.098;2022-12-29T08:02:14;9.50;86.00
43808;DHT22;29438;50.664;10.098;2022-12-29T08:04:40;9.40;86.70
43808;DHT22;29438;50.664;10.098;2022-12-29T08:07:05;9.30;87.00
43808;DHT22;29438;50.664;10.098;2022-12-29T08:09:31;9.30;87.10
43808;DHT22;29438;50.664;10.098;2022-12-29T08:11:56;9.30;86.90
43808;DHT22;29438;50.664;10.098;2022-12-29T08:14:22;9.30;86.50
43808;DHT22;29438;50.664;10.098;2022-12-29T08:16:47;9.30;86.50
43808;DHT22;29438;50.664;10.098;2022-12-29T08:19:13;9.40;85.90
43808;DHT22;29438;50.664;10.098;2022-12-29T08:21:39;9.40;86.10
43808;DHT22;29438;50.664;10.098;2022-12-29T08:24:05;9.40;86.10
43808;DHT22;29438;50.664;10.098;2022-12-29T08:26:31;9.40;85.90
43808;DHT22;29438;50.664;10.098;2022-12-29T08:28:56;9.40;85.70
43808;DHT22;29438;50.664;10.098;2022-12-29T08:31:22;9.40;85.70
43808;DHT22;29438;50.664;10.098;2022-12-29T08:33:48;9.40;85.50
43808;DHT22;29438;50.664;10.098;2022-12-29T08:36:14;9.50;85.10
43808;DHT22;29438;50.664;10.098;2022-12-29T08:38:40;9.50;85.00
43808;DHT22;29438;50.664;10.098;2022-12-29T08:41:05;9.60;84.90
43808;DHT22;29438;50.664;10.098;2022-12-29T08:43:31;9.50;85.00
43808;DHT22;29438;50.664;10.098;2022-12-29T08:46:00;9.50;85.30
43808;DHT22;29438;50.664;10.098;2022-12-29T08:48:26;9.50;85.20
43808;DHT22;29438;50.664;10.098;2022-12-29T08:50:51;9.50;85.20
43808;DHT22;29438;50.664;10.098;2022-12-29T08:53:18;9.50;84.90
43808;DHT22;29438;50.664;10.098;2022-12-29T08:55:47;9.50;84.90
43808;DHT22;29438;50.664;10.098;2022-12-29T08:58:19;9.50;85.20
43808;DHT22;29438;50.664;10.098;2022-12-29T09:00:44;9.50;84.90
43808;DHT22;29438;50.664;10.098;2022-12-29T09:03:10;9.50;85.20
43808;DHT22;29438;50.664;10.098;2022-12-29T09:05:35;9.50;85.20
43808;DHT22;29438;50.664;10.098;2022-12-29T09:08:01;9.50;84.80
43808;DHT22;29438;50.664;10.098;2022-12-29T09:10:27;9.60;84.70
43808;DHT22;29438;50.664;10.098;2022-12-29T09:12:52;9.60;84.50
43808;DHT22;29438;50.664;10.098;2022-12-29T09:15:18;9.60;84.40
43808;DHT22;29438;50.664;10.098;2022-12-29T09:17:43;9.70;84.00
43808;DHT22;29438;50.664;10.098;2022-12-29T09:20:14;9.70;83.70
43808;DHT22;29438;50.664;10.098;2022-12-29T09:22:41;9.80;83.80
43808;DHT22;29438;50.664;10.098;2022-12-29T09:25:07;9.80;83.50
43808;DHT22;29438;50.664;10.098;2022-12-29T09:27:34;9.70;83.90
43808;DHT22;29438;50.664;10.098;2022-12-29T09:30:00;9.70;83.90
43808;DHT22;29438;50.664;10.098;2022-12-29T09:32:25;9.70;84.00
43808;DHT22;29438;50.664;10.098;2022-12-29T09:34:51;9.70;83.90
43808;DHT22;29438;50.664;10.098;2022-12-29T09:37:16;9.70;83.90
43808;DHT22;29438;50.664;10.098;2022-12-29T09:39:42;9.70;83.70
43808;DHT22;29438;50.664;10.098;2022-12-29T09:42:26;9.80;83.30
43808;DHT22;29438;50.664;10.098;2022-12-29T09:47:42;10.00;82.40
43808;DHT22;29438;50.664;10.098;2022-12-29T09:50:24;10.10;82.10
43808;DHT22;29438;50.664;10.098;2022-12-29T09:55:30;9.90;83.40
43808;DHT22;29438;50.664;10.098;2022-12-29T09:58:04;9.90;84.00
43808;DHT22;29438;50.664;10.098;2022-12-29T10:00:39;9.80;84.60
43808;DHT22;29438;50.664;10.098;2022-12-29T10:03:17;9.80;85.30
43808;DHT22;29438;50.664;10.098;2022-12-29T10:05:49;9.80;85.20
43808;DHT22;29438;50.664;10.098;2022-12-29T10:11:36;10.00;84.30
43808;DHT22;29438;50.664;10.098;2022-12-29T10:17:06;9.90;84.10
43808;DHT22;29438;50.664;10.098;2022-12-29T10:19:47;9.90;83.60
43808;DHT22;29438;50.664;10.098;2022-12-29T10:22:37;9.90;84.60
43808;DHT22;29438;50.664;10.098;2022-12-29T10:25:15;9.90;85.00
43808;DHT22;29438;50.664;10.098;2022-12-29T10:27:42;9.80;84.70
43808;DHT22;29438;50.664;10.098;2022-12-29T10:30:12;9.90;84.70
43808;DHT22;29438;50.664;10.098;2022-12-29T10:35:15;9.80;84.90
43808;DHT22;29438;50.664;10.098;2022-12-29T10:40:53;10.30;83.60
43808;DHT22;29438;50.664;10.098;2022-12-29T10:43:28;10.40;82.60
43808;DHT22;29438;50.664;10.098;2022-12-29T10:46:00;10.50;82.70
43808;DHT22;29438;50.664;10.098;2022-12-29T10:48:31;10.40;83.10
43808;DHT22;29438;50.664;10.098;2022-12-29T10:50:58;10.20;85.10
43808;DHT22;29438;50.664;10.098;2022-12-29T10:53:30;10.00;86.30
43808;DHT22;29438;50.664;10.098;2022-12-29T10:56:01;10.00;86.10
43808;DHT22;29438;50.664;10.098;2022-12-29T10:58:49;9.90;86.30
43808;DHT22;29438;50.664;10.098;2022-12-29T11:01:16;9.80;86.40
43808;DHT22;29438;50.664;10.098;2022-12-29T11:03:58;9.80;85.80
43808;DHT22;29438;50.664;10.098;2022-12-29T11:06:28;9.80;86.10
43808;DHT22;29438;50.664;10.098;2022-12-29T11:09:16;10.00;85.50
43808;DHT22;29438;50.664;10.098;2022-12-29T11:11:45;10.10;84.80
43808;DHT22;29438;50.664;10.098;2022-12-29T11:14:17;10.00;84.20
43808;DHT22;29438;50.664;10.098;2022-12-29T11:16:43;10.00;84.20
43808;DHT22;29438;50.664;10.098;2022-12-29T11:19:21;10.00;84.10
43808;DHT22;29438;50.664;10.098;2022-12-29T11:21:47;10.00;83.70
43808;DHT22;29438;50.664;10.098;2022-12-29T11:24:23;9.90;84.00
43808;DHT22;29438;50.664;10.098;2022-12-29T11:26:53;9.90;83.90
43808;DHT22;29438;50.664;10.098;2022-12-29T11:29:26;9.90;83.80
43808;DHT22;29438;50.664;10.098;2022-12-29T11:31:58;9.90;84.50
43808;DHT22;29438;50.664;10.098;2022-12-29T11:36:53;9.80;84.10
43808;DHT22;29438;50.664;10.098;2022-12-29T11:39:32;9.80;84.40
43808;DHT22;29438;50.664;10.098;2022-12-29T11:41:58;9.70;84.40
43808;DHT22;29438;50.664;10.098;2022-12-29T11:44:25;9.70;85.00
43808;DHT22;29438;50.664;10.098;2022-12-29T11:46:52;9.60;84.60
43808;DHT22;29438;50.664;10.098;2022-12-29T11:49:23;9.70;85.30
43808;DHT22;29438;50.664;10.098;2022-12-29T11:51:51;9.70;84.90
43808;DHT22;29438;50.664;10.098;2022-12-29T11:56:53;9.80;84.40
43808;DHT22;29438;50.664;10.098;2022-12-29T12:01:58;9.70;85.10
43808;DHT22;29438;50.664;10.098;2022-12-29T12:04:30;9.60;84.40
43808;DHT22;29438;50.664;10.098;2022-12-29T12:07:17;9.70;84.10
43808;DHT22;29438;50.664;10.098;2022-12-29T12:09:49;9.80;84.00
43808;DHT22;29438;50.664;10.098;2022-12-29T12:12:28;9.70;83.80
43808;DHT22;29438;50.664;10.098;2022-12-29T12:14:56;9.70;83.40
43808;DHT22;29438;50.664;10.098;2022-12-29T12:17:40;9.60;83.80
43808;DHT22;29438;50.664;10.098;2022-12-29T12:20:44;9.60;83.20
43808;DHT22;29438;50.664;10.098;2022-12-29T12:23:31;9.70;82.50
43808;DHT22;29438;50.664;10.098;2022-12-29T12:26:01;9.80;82.80
43808;DHT22;29438;50.664;10.098;2022-12-29T12:28:48;9.80;82.50
43808;DHT22;29438;50.664;10.098;2022-12-29T12:31:45;9.80;82.40
43808;DHT22;29438;50.664;10.098;2022-12-29T12:34:19;9.80;82.20
43808;DHT22;29438;50.664;10.098;2022-12-29T12:37:00;9.80;81.80
43808;DHT22;29438;50.664;10.098;2022-12-29T12:42:34;9.80;82.10
43808;DHT22;29438;50.664;10.098;2022-12-29T12:48:05;9.70;81.70
43808;DHT22;29438;50.664;10.098;2022-12-29T13:02:11;9.40;81.70
43808;DHT22;29438;50.664;10.098;2022-12-29T13:10:23;9.30;82.60
43808;DHT22;29438;50.664;10.098;2022-12-29T13:15:55;9.40;82.40
43808;DHT22;29438;50.664;10.098;2022-12-29T13:21:40;9.70;81.50
43808;DHT22;29438;50.664;10.098;2022-12-29T13:26:44;9.50;81.10
43808;DHT22;29438;50.664;10.098;2022-12-29T13:29:23;9.40;81.00
43808;DHT22;29438;50.664;10.098;2022-12-29T13:32:19;9.40;81.10
43808;DHT22;29438;50.664;10.098;2022-12-29T13:35:16;9.30;80.90
43808;DHT22;29438;50.664;10.098;2022-12-29T13:37:51;9.30;81.00
43808;DHT22;29438;50.664;10.098;2022-12-29T13:40:23;9.20;81.00
43808;DHT22;29438;50.664;10.098;2022-12-29T13:42:50;9.20;81.00
43808;DHT22;29438;50.664;10.098;2022-12-29T13:45:20;9.20;81.20
43808;DHT22;29438;50.664;10.098;2022-12-29T13:48:00;9.10;81.50
43808;DHT22;29438;50.664;10.098;2022-12-29T13:50:28;9.10;81.20
43808;DHT22;29438;50.664;10.098;2022-12-29T13:58:38;9.20;80.70
43808;DHT22;29438;50.664;10.098;2022-12-29T14:01:13;9.20;81.10
43808;DHT22;29438;50.664;10.098;2022-12-29T14:08:46;9.00;81.20
43808;DHT22;29438;50.664;10.098;2022-12-29T14:11:15;9.00;81.50
43808;DHT22;29438;50.664;10.098;2022-12-29T14:13:45;9.00;81.90
43808;DHT22;29438;50.664;10.098;2022-12-29T14:16:25;9.00;81.70
43808;DHT22;29438;50.664;10.098;2022-12-29T14:18:51;9.10;81.60
43808;DHT22;29438;50.664;10.098;2022-12-29T14:21:21;9.00;81.30
43808;DHT22;29438;50.664;10.098;2022-12-29T14:23:50;8.90;81.60
43808;DHT22;29438;50.664;10.098;2022-12-29T14:28:47;8.80;81.70
43808;DHT22;29438;50.664;10.098;2022-12-29T14:36:54;8.60;82.00
43808;DHT22;29438;50.664;10.098;2022-12-29T14:39:36;8.50;82.50
43808;DHT22;29438;50.664;10.098;2022-12-29T14:44:49;8.50;82.90
43808;DHT22;29438;50.664;10.098;2022-12-29T14:50:45;8.20;83.80
43808;DHT22;29438;50.664;10.098;2022-12-29T14:52:52;8.10;84.00
43808;DHT22;29438;50.664;10.098;2022-12-29T14:57:51;8.00;84.60
43808;DHT22;29438;50.664;10.098;2022-12-29T15:00:22;7.90;84.80
43808;DHT22;29438;50.664;10.098;2022-12-29T15:03:13;7.90;85.20
43808;DHT22;29438;50.664;10.098;2022-12-29T15:05:54;7.90;85.40
43808;DHT22;29438;50.664;10.098;2022-12-29T15:08:24;7.90;85.80
43808;DHT22;29438;50.664;10.098;2022-12-29T15:10:57;7.90;86.00
43808;DHT22;29438;50.664;10.098;2022-12-29T15:13:36;8.00;86.00
43808;DHT22;29438;50.664;10.098;2022-12-29T15:16:03;8.00;85.80
43808;DHT22;29438;50.664;10.098;2022-12-29T15:18:31;8.00;85.80
43808;DHT22;29438;50.664;10.098;2022-12-29T15:21:02;8.00;86.00
43808;DHT22;29438;50.664;10.098;2022-12-29T15:23:31;8.10;85.80
43808;DHT22;29438;50.664;10.098;2022-12-29T15:26:02;7.90;86.00
43808;DHT22;29438;50.664;10.098;2022-12-29T15:28:44;7.90;86.40
43808;DHT22;29438;50.664;10.098;2022-12-29T15:31:19;7.80;86.50
43808;DHT22;29438;50.664;10.098;2022-12-29T15:33:51;7.80;87.10
43808;DHT22;29438;50.664;10.098;2022-12-29T15:36:22;7.90;86.80
43808;DHT22;29438;50.664;10.098;2022-12-29T15:38:49;8.00;86.70
43808;DHT22;29438;50.664;10.098;2022-12-29T15:41:36;8.00;86.80
43808;DHT22;29438;50.664;10.098;2022-12-29T15:44:39;8.00;86.70
43808;DHT22;29438;50.664;10.098;2022-12-29T15:47:11;8.20;86.10
43808;DHT22;29438;50.664;10.098;2022-12-29T15:49:37;8.20;85.80
43808;DHT22;29438;50.664;10.098;2022-12-29T15:52:08;8.20;85.90
43808;DHT22;29438;50.664;10.098;2022-12-29T15:54:34;8.20;85.80
43808;DHT22;29438;50.664;10.098;2022-12-29T15:57:00;8.20;85.80
43808;DHT22;29438;50.664;10.098;2022-12-29T15:59:29;8.10;85.80
43808;DHT22;29438;50.664;10.098;2022-12-29T16:01:56;8.00;85.80
43808;DHT22;29438;50.664;10.098;2022-12-29T16:04:24;8.00;85.80
43808;DHT22;29438;50.664;10.098;2022-12-29T16:06:59;7.90;85.90
43808;DHT22;29438;50.664;10.098;2022-12-29T16:09:44;8.00;85.50
43808;DHT22;29438;50.664;10.098;2022-12-29T16:12:22;7.90;85.60
43808;DHT22;29438;50.664;10.098;2022-12-29T16:14:53;7.90;85.80
43808;DHT22;29438;50.664;10.098;2022-12-29T16:17:24;7.90;85.70
43808;DHT22;29438;50.664;10.098;2022-12-29T16:19:59;8.00;85.50
43808;DHT22;29438;50.664;10.098;2022-12-29T16:24:58;8.20;85.00
43808;DHT22;29438;50.664;10.098;2022-12-29T16:27:38;8.20;84.90
43808;DHT22;29438;50.664;10.098;2022-12-29T16:30:25;8.30;84.80
43808;DHT22;29438;50.664;10.098;2022-12-29T16:32:54;8.30;84.30
43808;DHT22;29438;50.664;10.098;2022-12-29T16:35:22;8.20;84.90
43808;DHT22;29438;50.664;10.098;2022-12-29T16:38:06;8.20;85.50
43808;DHT22;29438;50.664;10.098;2022-12-29T16:40:33;8.20;86.30
43808;DHT22;29438;50.664;10.098;2022-12-29T16:43:02;8.10;86.50
43808;DHT22;29438;50.664;10.098;2022-12-29T16:48:19;7.90;86.90
43808;DHT22;29438;50.664;10.098;2022-12-29T16:50:45;8.00;86.40
43808;DHT22;29438;50.664;10.098;2022-12-29T16:53:29;7.90;86.70
43808;DHT22;29438;50.664;10.098;2022-12-29T16:55:59;7.90;86.80
43808;DHT22;29438;50.664;10.098;2022-12-29T16:58:27;8.00;86.30
43808;DHT22;29438;50.664;10.098;2022-12-29T17:00:56;7.90;86.40
43808;DHT22;29438;50.664;10.098;2022-12-29T17:03:30;7.90;86.30
43808;DHT22;29438;50.664;10.098;2022-12-29T17:05:56;7.90;86.40
43808;DHT22;29438;50.664;10.098;2022-12-29T17:08:22;7.90;86.30
43808;DHT22;29438;50.664;10.098;2022-12-29T17:10:52;7.90;86.30
43808;DHT22;29438;50.664;10.098;2022-12-29T17:13:37;7.90;86.30
43808;DHT22;29438;50.664;10.098;2022-12-29T17:16:04;7.80;86.20
43808;DHT22;29438;50.664;10.098;2022-12-29T17:18:30;7.80;86.50
43808;DHT22;29438;50.664;10.098;2022-12-29T17:20:56;7.80;86.10
43808;DHT22;29438;50.664;10.098;2022-12-29T17:23:21;7.90;85.50
43808;DHT22;29438;50.664;10.098;2022-12-29T17:25:47;7.90;85.80
43808;DHT22;29438;50.664;10.098;2022-12-29T17:28:18;7.90;86.50
43808;DHT22;29438;50.664;10.098;2022-12-29T17:30:45;7.80;87.10
43808;DHT22;29438;50.664;10.098;2022-12-29T17:33:16;7.70;87.70
43808;DHT22;29438;50.664;10.098;2022-12-29T17:35:43;7.50;87.70
43808;DHT22;29438;50.664;10.098;2022-12-29T17:38:19;7.30;87.90
43808;DHT22;29438;50.664;10.098;2022-12-29T17:40:45;7.10;88.00
43808;DHT22;29438;50.664;10.098;2022-12-29T17:43:13;7.00;88.50
43808;DHT22;29438;50.664;10.098;2022-12-29T17:45:40;7.10;88.20
43808;DHT22;29438;50.664;10.098;2022-12-29T17:48:14;7.20;88.00